Lyon, Mississippi
Current Conditions -  °F | °C
As of 7:35 AM on Thursday 23 Oct 2014 (Local Time) from KCKM Reporting Station
Clear Clear  
Wind Chill: 42°   Ceiling: Unl
Heat Index: 45°   Visibility: 9mi
Dew Point: 45°   Wind: 5mph
Humidity: 100%   Direction: 360°N
Pressure: 30.2"   Gusts: NA
Location:  34.22°N, 90.54°W
Report Text: KCKM 231235Z AUTO 36004KT 9SM CLR 07/07 A3020 RMK AO1
Loading
Personal Weather Stations






























Interactive Weather Map
Tropical Storm Tracking
New forecast layout! Learn more

10-Day Weather Forecast

Advertisements
Track Severe Weather on mobile